createdAt,value
2018-09-05T00:00:12.653Z,19.00
2018-09-05T00:02:41.519Z,16.83
2018-09-05T00:05:11.652Z,19.30
2018-09-05T00:07:40.513Z,17.33
2018-09-05T00:10:09.341Z,17.33
2018-09-05T00:12:38.189Z,19.03
2018-09-05T00:15:07.663Z,16.43
2018-09-05T00:17:36.572Z,17.43
2018-09-05T00:20:05.409Z,15.83
2018-09-05T00:22:34.535Z,16.50
2018-09-05T00:25:03.350Z,17.17
2018-09-05T00:27:32.195Z,16.33
2018-09-05T00:30:00.980Z,16.00
2018-09-05T00:32:30.188Z,15.87
2018-09-05T00:34:59.038Z,16.63
2018-09-05T00:37:27.977Z,17.47
2018-09-05T00:39:57.332Z,15.93
2018-09-05T00:42:26.241Z,17.27
2018-09-05T00:44:55.094Z,17.70
2018-09-05T00:47:23.923Z,16.27
2018-09-05T00:49:56.873Z,15.60
2018-09-05T00:52:26.418Z,23.37
2018-09-05T00:54:55.609Z,16.20
2018-09-05T00:57:24.493Z,15.83
2018-09-05T00:59:53.362Z,16.03
2018-09-05T01:02:22.624Z,16.10
2018-09-05T01:04:51.442Z,19.90
2018-09-05T01:07:27.914Z,16.37
2018-09-05T01:09:57.124Z,15.90
2018-09-05T01:12:26.448Z,16.83
2018-09-05T01:14:55.861Z,16.00
2018-09-05T01:17:24.697Z,15.77
2018-09-05T01:19:53.889Z,16.17
2018-09-05T01:22:22.737Z,16.47
2018-09-05T01:24:51.797Z,15.77
2018-09-05T01:27:20.633Z,14.77
2018-09-05T01:29:49.864Z,17.67
2018-09-05T01:32:18.706Z,16.27
2018-09-05T01:34:47.532Z,16.43
2018-09-05T01:37:16.386Z,17.57
2018-09-05T01:39:45.238Z,16.77
2018-09-05T01:42:14.143Z,16.10
2018-09-05T01:44:42.980Z,15.30
2018-09-05T01:47:13.192Z,16.57
2018-09-05T01:49:41.995Z,16.70
2018-09-05T01:52:10.869Z,17.07
2018-09-05T01:54:39.760Z,15.60
2018-09-05T01:57:08.593Z,16.60
2018-09-05T01:59:37.446Z,15.77
2018-09-05T02:02:06.680Z,15.77
2018-09-05T02:04:35.562Z,15.97
2018-09-05T02:07:04.409Z,16.53
2018-09-05T02:09:33.257Z,16.13
2018-09-05T02:12:02.095Z,17.60
2018-09-05T02:14:30.895Z,17.00
2018-09-05T02:16:59.748Z,16.70
2018-09-05T02:19:29.151Z,17.10
2018-09-05T02:21:58.657Z,16.47
2018-09-05T02:24:27.503Z,15.73
2018-09-05T02:26:56.357Z,16.80
2018-09-05T02:29:25.554Z,16.17
2018-09-05T02:31:54.405Z,16.83
2018-09-05T02:34:23.261Z,16.43
2018-09-05T02:36:52.194Z,17.30
2018-09-05T02:39:21.339Z,17.13
2018-09-05T02:41:50.158Z,18.33
2018-09-05T02:44:21.270Z,14.63
2018-09-05T02:46:50.506Z,17.93
2018-09-05T02:49:19.648Z,17.93
2018-09-05T02:51:48.699Z,17.27
2018-09-05T02:54:17.579Z,19.40
2018-09-05T02:56:46.380Z,16.13
2018-09-05T02:59:15.233Z,17.00
2018-09-05T03:01:44.074Z,17.40
2018-09-05T03:04:13.405Z,17.00
2018-09-05T03:06:42.618Z,18.73
2018-09-05T03:09:11.484Z,19.03
2018-09-05T03:11:40.685Z,19.20
2018-09-05T03:14:10.232Z,18.17
2018-09-05T03:16:39.069Z,18.97
2018-09-05T03:19:07.882Z,18.10
2018-09-05T03:21:37.109Z,18.03
2018-09-05T03:24:06.832Z,18.23
2018-09-05T03:26:35.678Z,16.27
2018-09-05T03:29:05.177Z,17.80
2018-09-05T03:31:34.029Z,16.80
2018-09-05T03:34:04.476Z,17.10
2018-09-05T03:36:33.272Z,17.13
2018-09-05T03:39:02.168Z,19.67
2018-09-05T03:41:31.063Z,17.20
2018-09-05T03:43:59.872Z,17.83
2018-09-05T03:46:29.274Z,17.00
2018-09-05T03:48:58.491Z,17.27
2018-09-05T03:51:27.337Z,17.03
2018-09-05T03:53:56.238Z,16.47
2018-09-05T03:56:26.510Z,15.67
2018-09-05T03:58:56.057Z,17.57
2018-09-05T04:01:24.936Z,16.70
2018-09-05T04:03:53.765Z,16.27
2018-09-05T04:06:23.252Z,16.87
2018-09-05T04:08:53.334Z,17.13
2018-09-05T04:11:22.141Z,18.13
2018-09-05T04:13:51.264Z,16.47
2018-09-05T04:16:20.648Z,18.73
2018-09-05T04:18:49.677Z,16.53
2018-09-05T04:21:18.624Z,17.40
2018-09-05T04:23:50.512Z,16.93
2018-09-05T04:26:20.082Z,16.80
2018-09-05T04:28:48.922Z,16.80
2018-09-05T04:31:18.860Z,17.47
2018-09-05T04:33:47.741Z,16.43
2018-09-05T04:36:16.601Z,17.47
2018-09-05T04:39:00.928Z,17.50
2018-09-05T04:41:29.680Z,16.87
2018-09-05T04:43:58.449Z,17.90
2018-09-05T04:46:27.328Z,16.17
2018-09-05T04:48:56.442Z,17.80
2018-09-05T04:51:25.265Z,16.97
2018-09-05T04:53:54.062Z,17.57
2018-09-05T04:56:22.887Z,17.30
2018-09-05T04:58:51.692Z,17.17
2018-09-05T05:01:20.512Z,16.33
2018-09-05T05:03:49.859Z,16.10
2018-09-05T05:06:18.680Z,16.77
2018-09-05T05:08:48.383Z,17.40
2018-09-05T05:11:17.659Z,15.80
2018-09-05T05:13:47.310Z,15.87
2018-09-05T05:16:16.143Z,18.07
2018-09-05T05:18:44.956Z,17.23
2018-09-05T05:21:13.761Z,18.87
2018-09-05T05:23:42.593Z,16.10
2018-09-05T05:26:11.584Z,16.50
2018-09-05T05:28:40.489Z,17.23
2018-09-05T05:31:09.286Z,16.87
2018-09-05T05:33:38.473Z,16.70
2018-09-05T05:36:07.364Z,16.30
2018-09-05T05:38:36.220Z,17.13
2018-09-05T05:41:07.771Z,17.27
2018-09-05T05:43:37.777Z,16.63
2018-09-05T05:46:07.036Z,17.27
2018-09-05T05:48:35.908Z,16.10
2018-09-05T05:51:05.352Z,16.90
2018-09-05T05:53:34.228Z,16.03
2018-09-05T05:56:03.236Z,16.00
2018-09-05T05:58:32.433Z,16.77
2018-09-05T06:01:01.276Z,17.20
2018-09-05T06:03:32.577Z,17.07
2018-09-05T06:06:02.706Z,16.77
2018-09-05T06:08:32.388Z,15.73
2018-09-05T06:11:01.221Z,15.43
2018-09-05T06:13:30.016Z,17.90
2018-09-05T06:15:59.197Z,17.70
2018-09-05T06:18:28.107Z,16.07
2018-09-05T06:20:58.116Z,15.33
2018-09-05T06:23:26.929Z,14.83
2018-09-05T06:25:55.748Z,16.87
2018-09-05T06:28:24.579Z,15.40
2018-09-05T06:30:55.235Z,17.53
2018-09-05T06:33:24.092Z,17.63
2018-09-05T06:35:52.897Z,15.90
2018-09-05T06:38:22.464Z,17.17
2018-09-05T06:40:51.847Z,18.13
2018-09-05T06:43:20.706Z,15.93
2018-09-05T06:45:50.077Z,14.77
2018-09-05T06:48:19.444Z,15.73
2018-09-05T06:50:48.643Z,15.87
2018-09-05T06:53:17.576Z,15.93
2018-09-05T06:55:50.992Z,14.30
2018-09-05T06:58:20.902Z,14.10
2018-09-05T07:00:49.816Z,16.30
2018-09-05T07:03:24.414Z,15.47
2018-09-05T07:05:53.613Z,16.73
2018-09-05T07:08:22.453Z,14.33
2018-09-05T07:10:51.329Z,13.30
2018-09-05T07:13:20.236Z,15.00
2018-09-05T07:15:49.116Z,14.13
2018-09-05T07:18:18.012Z,15.80
2018-09-05T07:20:48.554Z,13.47
2018-09-05T07:23:17.372Z,13.30
2018-09-05T07:25:46.241Z,14.50
2018-09-05T07:28:15.471Z,13.27
2018-09-05T07:30:45.052Z,14.13
2018-09-05T07:33:14.284Z,13.67
2018-09-05T07:35:44.117Z,15.03
2018-09-05T07:38:14.285Z,16.43
2018-09-05T07:40:44.266Z,14.33
2018-09-05T07:43:14.028Z,17.73
2018-09-05T07:45:44.395Z,15.93
2018-09-05T07:48:13.277Z,16.13
2018-09-05T07:50:42.825Z,17.63
2018-09-05T07:53:12.165Z,15.30
2018-09-05T07:55:41.009Z,15.33
2018-09-05T07:58:09.868Z,14.93
2018-09-05T08:00:38.714Z,16.27
2018-09-05T08:03:11.540Z,15.27
2018-09-05T08:05:40.347Z,19.90
2018-09-05T08:08:09.201Z,16.67
2018-09-05T08:10:38.012Z,17.43
2018-09-05T08:13:06.806Z,15.17
2018-09-05T08:15:36.412Z,15.47
2018-09-05T08:18:05.811Z,14.30
2018-09-05T08:20:34.656Z,13.87
2018-09-05T08:23:03.508Z,15.93
2018-09-05T08:25:32.320Z,17.77
2018-09-05T08:28:01.172Z,15.93
2018-09-05T08:30:30.019Z,23.27
2018-09-05T08:32:59.763Z,17.33
2018-09-05T08:35:29.234Z,16.57
2018-09-05T08:37:58.095Z,16.80
2018-09-05T08:40:26.892Z,18.13
2018-09-05T08:42:56.152Z,18.37
2018-09-05T08:45:26.453Z,15.27
2018-09-05T08:47:56.149Z,19.20
2018-09-05T08:50:26.803Z,17.57
2018-09-05T08:52:55.806Z,16.07
2018-09-05T08:55:25.051Z,13.20
2018-09-05T08:57:54.807Z,16.37
2018-09-05T09:00:24.494Z,15.37
2018-09-05T09:02:53.453Z,17.93
2018-09-05T09:05:22.614Z,15.53
2018-09-05T09:07:52.888Z,16.23
2018-09-05T09:10:21.875Z,16.13
2018-09-05T09:12:53.384Z,20.00
2018-09-05T09:15:22.248Z,15.87
2018-09-05T09:17:51.097Z,18.37
2018-09-05T09:20:20.009Z,19.30
2018-09-05T09:22:49.297Z,16.30
2018-09-05T09:25:18.225Z,16.10
2018-09-05T09:27:47.193Z,14.93
2018-09-05T09:30:16.077Z,14.10
2018-09-05T09:32:45.273Z,16.97
2018-09-05T09:35:14.107Z,14.27
2018-09-05T09:37:44.446Z,15.80
2018-09-05T09:40:13.329Z,15.27
2018-09-05T09:42:42.207Z,15.13
2018-09-05T09:45:11.113Z,13.87
2018-09-05T09:47:39.920Z,15.40
2018-09-05T09:50:09.899Z,13.20
2018-09-05T09:52:38.999Z,18.70
2018-09-05T09:55:10.872Z,13.80
2018-09-05T09:57:41.284Z,12.67
2018-09-05T10:00:10.266Z,13.97
2018-09-05T10:02:45.243Z,11.27
2018-09-05T10:05:20.174Z,11.77
2018-09-05T10:07:54.997Z,12.57
2018-09-05T10:10:29.098Z,12.67
2018-09-05T10:13:03.223Z,12.23
2018-09-05T10:15:37.735Z,11.47
2018-09-05T10:18:12.632Z,14.30
2018-09-05T10:20:41.546Z,10.20
2018-09-05T10:23:10.428Z,14.27
2018-09-05T10:25:40.409Z,12.63
2018-09-05T10:28:09.229Z,11.87
2018-09-05T10:30:38.091Z,10.10
2018-09-05T10:33:08.628Z,13.37
2018-09-05T10:35:37.491Z,11.37
2018-09-05T10:38:07.348Z,14.00
2018-09-05T10:40:36.449Z,10.13
2018-09-05T10:43:05.645Z,8.33
2018-09-05T10:45:34.446Z,10.70
2018-09-05T10:48:03.326Z,10.53
2018-09-05T10:50:32.654Z,10.23
2018-09-05T10:53:03.563Z,13.20
2018-09-05T10:55:32.360Z,9.63
2018-09-05T10:58:01.578Z,10.57
2018-09-05T11:00:30.388Z,11.80
2018-09-05T11:02:59.184Z,9.93
2018-09-05T11:05:31.617Z,10.60
2018-09-05T11:08:00.932Z,10.17
2018-09-05T11:10:29.821Z,12.00
2018-09-05T11:13:00.497Z,9.03
2018-09-05T11:15:30.657Z,9.73
2018-09-05T11:18:00.834Z,9.63
2018-09-05T11:20:29.788Z,9.27
2018-09-05T11:22:58.758Z,10.87
2018-09-05T11:25:29.014Z,12.67
2018-09-05T11:27:57.896Z,9.47
2018-09-05T11:30:26.831Z,8.63
2018-09-05T11:32:56.312Z,10.00
2018-09-05T11:35:25.226Z,11.13
2018-09-05T11:37:54.035Z,10.57
2018-09-05T11:40:25.089Z,10.13
2018-09-05T11:42:54.431Z,10.37
2018-09-05T11:45:23.314Z,13.43
2018-09-05T11:47:52.237Z,14.63
2018-09-05T11:50:21.092Z,12.87
2018-09-05T11:52:51.134Z,10.17
2018-09-05T11:55:20.094Z,15.70
2018-09-05T11:57:49.788Z,9.13
2018-09-05T12:00:19.270Z,10.17
2018-09-05T12:02:51.419Z,9.83
2018-09-05T12:05:20.469Z,14.10
2018-09-05T12:07:50.808Z,9.13
2018-09-05T12:10:21.232Z,12.67
2018-09-05T12:12:50.226Z,10.50
2018-09-05T12:15:19.102Z,10.60
2018-09-05T12:17:48.509Z,9.00
2018-09-05T12:20:17.873Z,9.10
2018-09-05T12:22:46.741Z,10.00
2018-09-05T12:25:17.932Z,10.43
2018-09-05T12:27:47.886Z,10.83
2018-09-05T12:30:16.742Z,8.80
2018-09-05T12:32:46.481Z,9.83
2018-09-05T12:35:15.919Z,9.17
2018-09-05T12:37:45.155Z,12.13
2018-09-05T12:40:14.963Z,11.97
2018-09-05T12:42:45.312Z,10.97
2018-09-05T12:45:15.371Z,8.23
2018-09-05T12:47:45.191Z,8.27
2018-09-05T12:50:25.470Z,17.37
2018-09-05T12:52:56.163Z,9.47
2018-09-05T12:55:26.374Z,9.17
2018-09-05T12:57:55.576Z,17.57
2018-09-05T13:00:24.444Z,10.97
2018-09-05T13:02:53.287Z,9.57
2018-09-05T13:05:22.185Z,8.60
2018-09-05T13:07:51.003Z,13.87
2018-09-05T13:10:21.661Z,12.57
2018-09-05T13:12:50.450Z,9.73
2018-09-05T13:15:19.864Z,9.73
2018-09-05T13:17:48.737Z,9.77
2018-09-05T13:20:18.280Z,11.90
2018-09-05T13:22:50.793Z,11.70
2018-09-05T13:25:20.568Z,13.83
2018-09-05T13:27:52.523Z,12.33
2018-09-05T13:30:22.940Z,8.93
2018-09-05T13:32:56.478Z,9.20
2018-09-05T13:35:25.417Z,11.03
2018-09-05T13:37:56.287Z,10.37
2018-09-05T13:40:55.796Z,12.00
2018-09-05T13:43:24.886Z,12.03
2018-09-05T13:48:47.285Z,12.23
2018-09-05T13:51:16.742Z,13.50
2018-09-05T13:54:16.722Z,14.90
2018-09-05T13:56:46.294Z,12.50
2018-09-05T13:59:15.414Z,13.40
2018-09-05T14:01:45.490Z,12.40
2018-09-05T14:04:15.409Z,12.97
2018-09-05T14:06:48.590Z,10.33
2018-09-05T14:09:17.860Z,12.87
2018-09-05T14:11:48.386Z,9.10
2018-09-05T14:14:17.528Z,12.33
2018-09-05T14:16:46.652Z,11.60
2018-09-05T14:19:18.330Z,9.70
2018-09-05T14:21:49.915Z,13.00
2018-09-05T14:24:19.206Z,11.07
2018-09-05T14:26:48.969Z,10.40
2018-09-05T14:29:18.271Z,9.10
2018-09-05T14:31:48.254Z,8.60
2018-09-05T14:34:17.322Z,15.00
2018-09-05T14:36:48.185Z,14.13
2018-09-05T14:39:17.322Z,9.70
2018-09-05T14:41:46.829Z,8.80
2018-09-05T14:44:16.882Z,11.80
2018-09-05T14:46:46.612Z,9.57
2018-09-05T14:49:16.500Z,12.77
2018-09-05T14:51:46.636Z,13.13
2018-09-05T14:54:15.809Z,10.63
2018-09-05T14:56:46.565Z,12.83
2018-09-05T14:59:24.564Z,10.80
2018-09-05T15:01:53.703Z,10.13
2018-09-05T15:04:26.635Z,10.70
2018-09-05T15:06:58.578Z,8.60
2018-09-05T15:09:30.002Z,8.60
2018-09-05T15:11:59.161Z,10.60
2018-09-05T15:14:28.201Z,11.73
2018-09-05T15:16:58.199Z,10.57
2018-09-05T15:19:27.351Z,10.20
2018-09-05T15:22:01.158Z,9.23
2018-09-05T15:24:37.168Z,11.67
2018-09-05T15:27:07.847Z,11.00
2018-09-05T15:29:36.933Z,9.50
2018-09-05T15:32:06.058Z,10.20
2018-09-05T15:34:35.802Z,7.67
2018-09-05T15:37:07.396Z,10.97
2018-09-05T15:39:36.457Z,10.17
2018-09-05T15:42:06.076Z,7.97
2018-09-05T15:44:36.993Z,11.57
2018-09-05T15:47:06.918Z,8.73
2018-09-05T15:49:37.549Z,8.00
2018-09-05T15:52:07.685Z,7.80
2018-09-05T15:54:37.762Z,9.57
2018-09-05T15:57:10.233Z,8.63
2018-09-05T15:59:41.113Z,10.10
2018-09-05T16:02:11.557Z,8.17
2018-09-05T16:04:41.172Z,11.90
2018-09-05T16:07:12.029Z,8.33
2018-09-05T16:09:43.682Z,11.90
2018-09-05T16:12:38.905Z,7.90
2018-09-05T16:15:17.023Z,11.00
2018-09-05T16:17:47.444Z,17.03
2018-09-05T16:20:18.381Z,12.53
2018-09-05T16:22:47.490Z,9.53
2018-09-05T16:25:16.564Z,9.47
2018-09-05T16:27:46.236Z,11.97
2018-09-05T16:30:16.157Z,8.57
2018-09-05T16:32:46.341Z,7.57
2018-09-05T16:35:18.963Z,10.93
2018-09-05T16:37:48.066Z,8.63
2018-09-05T16:40:18.413Z,9.47
2018-09-05T16:42:47.566Z,12.37
2018-09-05T16:45:17.814Z,9.37
2018-09-05T16:47:49.032Z,8.73
2018-09-05T16:50:20.278Z,11.17
2018-09-05T16:52:51.521Z,7.73
2018-09-05T16:55:22.902Z,9.90
2018-09-05T16:57:52.021Z,9.57
2018-09-05T17:00:22.545Z,8.83
2018-09-05T17:02:52.530Z,9.53
2018-09-05T17:05:21.623Z,11.37
2018-09-05T17:07:51.583Z,7.23
2018-09-05T17:10:23.476Z,10.43
2018-09-05T17:12:53.095Z,11.33
2018-09-05T17:15:22.314Z,9.53
2018-09-05T17:17:51.402Z,9.87
2018-09-05T17:20:21.455Z,8.20
2018-09-05T17:22:51.169Z,8.13
2018-09-05T17:25:20.286Z,7.73
2018-09-05T17:27:50.419Z,13.57
2018-09-05T17:30:20.550Z,13.10
2018-09-05T17:32:53.561Z,9.30
2018-09-05T17:35:23.390Z,13.83
2018-09-05T17:37:53.913Z,10.50
2018-09-05T17:40:23.119Z,11.80
2018-09-05T17:42:53.546Z,8.20
2018-09-05T17:45:24.068Z,7.83
2018-09-05T17:47:54.711Z,10.80
2018-09-05T17:50:26.347Z,8.23
2018-09-05T17:53:00.161Z,8.90
2018-09-05T17:55:31.217Z,8.07
2018-09-05T17:58:00.337Z,8.07
2018-09-05T18:00:32.245Z,12.23
2018-09-05T18:03:01.324Z,11.60
2018-09-05T18:05:30.355Z,8.33
2018-09-05T18:08:06.697Z,8.57
2018-09-05T18:10:38.194Z,7.70
2018-09-05T18:13:08.463Z,8.20
2018-09-05T18:15:40.663Z,8.77
2018-09-05T18:18:10.540Z,8.83
2018-09-05T18:20:46.576Z,8.83
2018-09-05T18:23:16.341Z,11.17
2018-09-05T18:25:47.634Z,8.37
2018-09-05T18:28:21.882Z,11.10
2018-09-05T18:30:58.424Z,10.13
2018-09-05T18:33:29.992Z,8.63
2018-09-05T18:36:04.521Z,10.97
2018-09-05T18:38:33.606Z,8.73
2018-09-05T18:41:03.162Z,8.03
2018-09-05T18:43:32.797Z,9.70
2018-09-05T18:46:03.114Z,8.50
2018-09-05T18:48:34.399Z,9.73
2018-09-05T18:51:12.401Z,11.00
2018-09-05T18:53:48.569Z,11.77
2018-09-05T18:56:20.312Z,9.67
2018-09-05T18:58:53.039Z,8.47
2018-09-05T19:01:23.544Z,8.87
2018-09-05T19:03:55.511Z,14.60
2018-09-05T19:06:26.313Z,12.00
2018-09-05T19:08:57.317Z,15.63
2018-09-05T19:11:29.210Z,9.97
2018-09-05T19:13:58.842Z,13.93
2018-09-05T19:16:35.566Z,11.07
2018-09-05T19:19:07.662Z,9.77
2018-09-05T19:21:39.777Z,11.40
2018-09-05T19:24:14.254Z,10.40
2018-09-05T19:26:47.255Z,12.17
2018-09-05T19:29:20.228Z,11.47
2018-09-05T19:31:51.276Z,9.27
2018-09-05T19:34:20.477Z,9.67
2018-09-05T19:36:50.297Z,13.57
2018-09-05T19:39:21.874Z,10.33
2018-09-05T19:41:55.109Z,9.60
2018-09-05T19:44:24.685Z,11.37
2018-09-05T19:46:54.540Z,11.20
2018-09-05T19:49:24.400Z,11.70
2018-09-05T19:51:55.245Z,10.13
2018-09-05T19:54:25.601Z,9.97
2018-09-05T19:56:57.837Z,13.63
2018-09-05T19:59:28.415Z,12.73
2018-09-05T20:02:02.420Z,12.60
2018-09-05T20:04:35.557Z,10.37
2018-09-05T20:07:06.628Z,10.03
2018-09-05T20:09:43.856Z,10.43
2018-09-05T20:12:15.141Z,8.73
2018-09-05T20:14:46.062Z,10.53
2018-09-05T20:17:15.134Z,11.90
2018-09-05T20:19:44.495Z,10.57
2018-09-05T20:22:15.397Z,10.90
2018-09-05T20:24:44.783Z,10.57
2018-09-05T20:27:14.000Z,10.47
2018-09-05T20:29:42.845Z,10.73
2018-09-05T20:32:13.127Z,12.07
2018-09-05T20:34:42.231Z,9.30
2018-09-05T20:37:11.879Z,10.80
2018-09-05T20:39:43.796Z,8.90
2018-09-05T20:42:12.587Z,10.23
2018-09-05T20:44:41.408Z,9.83
2018-09-05T20:47:10.279Z,10.60
2018-09-05T20:49:39.742Z,9.17
2018-09-05T20:52:08.563Z,11.20
2018-09-05T20:54:37.750Z,11.23
2018-09-05T20:57:10.069Z,12.13
2018-09-05T20:59:38.759Z,9.43
2018-09-05T21:02:08.457Z,10.70
2018-09-05T21:04:37.355Z,12.27
2018-09-05T21:07:07.739Z,9.60
2018-09-05T21:09:37.323Z,13.23
2018-09-05T21:12:09.068Z,8.83
2018-09-05T21:14:37.836Z,7.90
2018-09-05T21:17:08.444Z,8.43
2018-09-05T21:19:43.673Z,10.20
2018-09-05T21:22:13.585Z,8.73
2018-09-05T21:24:45.540Z,9.23
2018-09-05T21:27:18.875Z,11.93
2018-09-05T21:29:48.437Z,9.93
2018-09-05T21:32:17.344Z,9.40
2018-09-05T21:34:46.987Z,8.23
2018-09-05T21:37:16.368Z,8.53
2018-09-05T21:39:46.674Z,7.90
2018-09-05T21:42:15.513Z,9.13
2018-09-05T21:44:44.331Z,7.77
2018-09-05T21:47:15.236Z,12.70
2018-09-05T21:50:02.462Z,8.30
2018-09-05T21:52:32.376Z,9.17
2018-09-05T21:55:01.206Z,9.53
2018-09-05T21:57:44.504Z,9.47
2018-09-05T22:03:00.328Z,9.80
2018-09-05T22:05:29.271Z,11.00
2018-09-05T22:13:03.397Z,9.07
2018-09-05T22:15:36.099Z,10.77
2018-09-05T22:18:04.952Z,8.33
2018-09-05T22:20:33.790Z,8.57
2018-09-05T22:23:02.656Z,8.43
2018-09-05T22:25:32.765Z,12.20
2018-09-05T22:28:01.721Z,9.13
2018-09-05T22:30:31.227Z,10.57
2018-09-05T22:33:00.642Z,10.33
2018-09-05T22:35:29.756Z,10.07
2018-09-05T22:37:58.874Z,8.70
2018-09-05T22:40:35.448Z,8.00
2018-09-05T22:43:15.263Z,11.20
2018-09-05T22:45:57.203Z,9.13
2018-09-05T22:48:48.883Z,9.50
2018-09-05T22:53:48.978Z,8.57
2018-09-05T22:56:36.127Z,10.80
2018-09-05T23:03:20.572Z,8.70
2018-09-05T23:06:00.832Z,9.83
2018-09-05T23:08:37.278Z,9.00
2018-09-05T23:11:17.370Z,8.23
2018-09-05T23:13:56.900Z,8.33
2018-09-05T23:16:36.607Z,9.53
2018-09-05T23:19:33.595Z,21.37
2018-09-05T23:22:02.526Z,10.10
2018-09-05T23:24:31.415Z,8.47
2018-09-05T23:27:00.675Z,9.20
2018-09-05T23:29:29.603Z,8.17
2018-09-05T23:31:58.474Z,8.70
2018-09-05T23:34:27.362Z,10.50
2018-09-05T23:36:56.641Z,9.27
2018-09-05T23:39:26.451Z,10.70
2018-09-05T23:41:55.315Z,10.33
2018-09-05T23:44:24.734Z,12.37
2018-09-05T23:46:53.608Z,11.30
2018-09-05T23:49:22.420Z,9.20
2018-09-05T23:51:51.660Z,9.87
2018-09-05T23:54:20.667Z,8.63
2018-09-05T23:56:50.104Z,8.90
2018-09-05T23:59:18.919Z,12.10
